sensor_id;sensor_type;location;lat;lon;timestamp;pressure;altitude;pressure_sealevel;temperature;humidity
54146;BME280;40052;49.422;7.738;2022-10-16T00:01:23;74070.41;;;-145.25;100.00
54146;BME280;40052;49.422;7.738;2022-10-16T00:03:49;74080.41;;;-145.25;100.00
54146;BME280;40052;49.422;7.738;2022-10-16T00:06:16;74092.44;;;-145.25;100.00
54146;BME280;40052;49.422;7.738;2022-10-16T00:08:41;74104.47;;;-145.25;100.00
54146;BME280;40052;49.422;7.738;2022-10-16T00:11:13;74112.47;;;-145.25;100.00
54146;BME280;40052;49.422;7.738;2022-10-16T00:13:42;74102.47;;;-145.25;100.00
54146;BME280;40052;49.422;7.738;2022-10-16T00:16:08;74082.44;;;-145.25;100.00
54146;BME280;40052;49.422;7.738;2022-10-16T00:18:37;74092.44;;;-145.25;100.00
54146;BME280;40052;49.422;7.738;2022-10-16T00:21:11;74082.44;;;-145.25;100.00
54146;BME280;40052;49.422;7.738;2022-10-16T00:23:38;74074.41;;;-145.25;100.00
54146;BME280;40052;49.422;7.738;2022-10-16T00:26:06;74076.41;;;-145.25;100.00
54146;BME280;40052;49.422;7.738;2022-10-16T00:28:34;74086.44;;;-145.25;100.00
54146;BME280;40052;49.422;7.738;2022-10-16T00:31:07;74084.44;;;-145.25;100.00
54146;BME280;40052;49.422;7.738;2022-10-16T00:33:33;74074.41;;;-145.25;100.00
54146;BME280;40052;49.422;7.738;2022-10-16T00:36:03;74072.41;;;-145.25;100.00
54146;BME280;40052;49.422;7.738;2022-10-16T00:38:31;74072.41;;;-145.25;100.00
54146;BME280;40052;49.422;7.738;2022-10-16T00:40:56;74074.41;;;-145.25;100.00
54146;BME280;40052;49.422;7.738;2022-10-16T00:46:29;74080.41;;;-145.25;100.00
54146;BME280;40052;49.422;7.738;2022-10-16T00:51:43;74066.41;;;-145.25;100.00
54146;BME280;40052;49.422;7.738;2022-10-16T00:54:31;74068.41;;;-145.25;100.00
54146;BME280;40052;49.422;7.738;2022-10-16T00:57:01;74070.41;;;-145.25;100.00
54146;BME280;40052;49.422;7.738;2022-10-16T01:02:01;74062.38;;;-145.25;100.00
54146;BME280;40052;49.422;7.738;2022-10-16T01:04:32;74066.41;;;-145.25;100.00
54146;BME280;40052;49.422;7.738;2022-10-16T01:09:37;74064.38;;;-145.25;100.00
54146;BME280;40052;49.422;7.738;2022-10-16T01:12:28;74064.38;;;-145.25;100.00
54146;BME280;40052;49.422;7.738;2022-10-16T01:15:10;74066.41;;;-145.25;100.00
54146;BME280;40052;49.422;7.738;2022-10-16T01:23:07;74074.41;;;-145.25;100.00
54146;BME280;40052;49.422;7.738;2022-10-16T01:28:22;74078.41;;;-145.25;100.00
54146;BME280;40052;49.422;7.738;2022-10-16T01:30:53;74072.41;;;-145.25;100.00
54146;BME280;40052;49.422;7.738;2022-10-16T01:33:30;74074.41;;;-145.25;100.00
54146;BME280;40052;49.422;7.738;2022-10-16T01:36:15;74068.41;;;-145.25;100.00
54146;BME280;40052;49.422;7.738;2022-10-16T01:38:47;74076.41;;;-145.25;100.00
54146;BME280;40052;49.422;7.738;2022-10-16T01:41:20;74076.41;;;-145.25;100.00
54146;BME280;40052;49.422;7.738;2022-10-16T01:43:50;74080.41;;;-145.25;100.00
54146;BME280;40052;49.422;7.738;2022-10-16T01:46:20;74076.41;;;-145.25;100.00
54146;BME280;40052;49.422;7.738;2022-10-16T01:48:50;74076.41;;;-145.25;100.00
54146;BME280;40052;49.422;7.738;2022-10-16T01:51:19;74074.41;;;-145.25;100.00
54146;BME280;40052;49.422;7.738;2022-10-16T01:53:49;74066.41;;;-145.25;100.00
54146;BME280;40052;49.422;7.738;2022-10-16T01:56:17;74066.41;;;-145.25;100.00
54146;BME280;40052;49.422;7.738;2022-10-16T01:58:57;74068.41;;;-145.25;100.00
54146;BME280;40052;49.422;7.738;2022-10-16T02:01:31;74078.41;;;-145.25;100.00
54146;BME280;40052;49.422;7.738;2022-10-16T02:04:03;74072.41;;;-145.25;100.00
54146;BME280;40052;49.422;7.738;2022-10-16T02:06:30;74068.41;;;-145.25;100.00
54146;BME280;40052;49.422;7.738;2022-10-16T02:08:55;74082.44;;;-145.25;100.00
54146;BME280;40052;49.422;7.738;2022-10-16T02:11:24;74088.44;;;-145.25;100.00
54146;BME280;40052;49.422;7.738;2022-10-16T02:14:00;74084.44;;;-145.25;100.00
54146;BME280;40052;49.422;7.738;2022-10-16T02:16:34;74078.41;;;-145.25;100.00
54146;BME280;40052;49.422;7.738;2022-10-16T02:19:00;74076.41;;;-145.25;100.00
54146;BME280;40052;49.422;7.738;2022-10-16T02:21:28;74096.44;;;-145.25;100.00
54146;BME280;40052;49.422;7.738;2022-10-16T02:24:03;74106.47;;;-145.25;100.00
54146;BME280;40052;49.422;7.738;2022-10-16T02:29:04;74120.50;;;-145.25;100.00
54146;BME280;40052;49.422;7.738;2022-10-16T02:31:33;74098.44;;;-145.25;100.00
54146;BME280;40052;49.422;7.738;2022-10-16T02:34:02;74118.50;;;-145.25;100.00
54146;BME280;40052;49.422;7.738;2022-10-16T02:36:35;74104.47;;;-145.25;100.00
54146;BME280;40052;49.422;7.738;2022-10-16T02:39:03;74090.44;;;-145.25;100.00
54146;BME280;40052;49.422;7.738;2022-10-16T02:41:30;74090.44;;;-145.25;100.00
54146;BME280;40052;49.422;7.738;2022-10-16T02:43:55;74098.44;;;-145.25;100.00
54146;BME280;40052;49.422;7.738;2022-10-16T02:46:21;74096.44;;;-145.25;100.00
54146;BME280;40052;49.422;7.738;2022-10-16T02:48:46;74118.50;;;-145.25;100.00
54146;BME280;40052;49.422;7.738;2022-10-16T02:51:12;74118.50;;;-145.25;100.00
54146;BME280;40052;49.422;7.738;2022-10-16T02:53:37;74122.50;;;-145.25;100.00
54146;BME280;40052;49.422;7.738;2022-10-16T02:56:03;74140.53;;;-145.25;100.00
54146;BME280;40052;49.422;7.738;2022-10-16T02:58:28;74128.50;;;-145.25;100.00
54146;BME280;40052;49.422;7.738;2022-10-16T03:00:59;74140.53;;;-145.25;100.00
54146;BME280;40052;49.422;7.738;2022-10-16T03:03:24;74130.50;;;-145.25;100.00
54146;BME280;40052;49.422;7.738;2022-10-16T03:05:49;74138.53;;;-145.25;100.00
54146;BME280;40052;49.422;7.738;2022-10-16T03:08:15;74130.50;;;-145.25;100.00
54146;BME280;40052;49.422;7.738;2022-10-16T03:10:40;74144.53;;;-145.25;100.00
54146;BME280;40052;49.422;7.738;2022-10-16T03:13:06;74144.53;;;-145.25;100.00
54146;BME280;40052;49.422;7.738;2022-10-16T03:15:33;74148.53;;;-145.25;100.00
54146;BME280;40052;49.422;7.738;2022-10-16T03:18:02;74142.53;;;-145.25;100.00
54146;BME280;40052;49.422;7.738;2022-10-16T03:20:32;74144.53;;;-145.25;100.00
54146;BME280;40052;49.422;7.738;2022-10-16T03:22:59;74150.53;;;-145.25;100.00
54146;BME280;40052;49.422;7.738;2022-10-16T03:25:28;74142.53;;;-145.25;100.00
54146;BME280;40052;49.422;7.738;2022-10-16T03:27:53;74144.53;;;-145.25;100.00
54146;BME280;40052;49.422;7.738;2022-10-16T03:30:18;74148.53;;;-145.25;100.00
54146;BME280;40052;49.422;7.738;2022-10-16T03:32:46;74148.53;;;-145.25;100.00
54146;BME280;40052;49.422;7.738;2022-10-16T03:35:12;74146.53;;;-145.25;100.00
54146;BME280;40052;49.422;7.738;2022-10-16T03:37:38;74150.53;;;-145.25;100.00
54146;BME280;40052;49.422;7.738;2022-10-16T03:40:06;74148.53;;;-145.25;99.90
54146;BME280;40052;49.422;7.738;2022-10-16T03:42:31;74142.53;;;-145.25;100.00
54146;BME280;40052;49.422;7.738;2022-10-16T03:44:57;74138.53;;;-145.25;99.90
54146;BME280;40052;49.422;7.738;2022-10-16T03:47:22;74126.50;;;-145.25;99.41
54146;BME280;40052;49.422;7.738;2022-10-16T03:49:49;74128.50;;;-145.25;98.69
54146;BME280;40052;49.422;7.738;2022-10-16T03:52:17;74128.50;;;-145.25;98.38
54146;BME280;40052;49.422;7.738;2022-10-16T03:54:43;74140.53;;;-145.25;97.74
54146;BME280;40052;49.422;7.738;2022-10-16T03:57:08;74148.53;;;-145.25;97.77
54146;BME280;40052;49.422;7.738;2022-10-16T03:59:36;74152.56;;;-145.25;97.69
54146;BME280;40052;49.422;7.738;2022-10-16T04:02:04;74154.56;;;-145.25;97.17
54146;BME280;40052;49.422;7.738;2022-10-16T04:04:29;74156.56;;;-145.25;97.15
54146;BME280;40052;49.422;7.738;2022-10-16T04:06:57;74156.56;;;-145.25;97.48
54146;BME280;40052;49.422;7.738;2022-10-16T04:09:22;74174.59;;;-145.25;98.29
54146;BME280;40052;49.422;7.738;2022-10-16T04:11:48;74182.59;;;-145.25;99.28
54146;BME280;40052;49.422;7.738;2022-10-16T04:14:15;74186.63;;;-145.25;99.99
54146;BME280;40052;49.422;7.738;2022-10-16T04:16:43;74204.66;;;-145.25;100.00
54146;BME280;40052;49.422;7.738;2022-10-16T04:19:11;74204.66;;;-145.25;100.00
54146;BME280;40052;49.422;7.738;2022-10-16T04:21:39;74200.63;;;-145.25;100.00
54146;BME280;40052;49.422;7.738;2022-10-16T04:24:04;74192.63;;;-145.25;100.00
54146;BME280;40052;49.422;7.738;2022-10-16T04:26:29;74182.59;;;-145.25;100.00
54146;BME280;40052;49.422;7.738;2022-10-16T04:28:55;74178.59;;;-145.25;100.00
54146;BME280;40052;49.422;7.738;2022-10-16T04:31:20;74176.59;;;-145.25;100.00
54146;BME280;40052;49.422;7.738;2022-10-16T04:33:51;74172.59;;;-145.25;100.00
54146;BME280;40052;49.422;7.738;2022-10-16T04:36:16;74168.59;;;-145.25;100.00
54146;BME280;40052;49.422;7.738;2022-10-16T04:38:41;74156.56;;;-145.25;100.00
54146;BME280;40052;49.422;7.738;2022-10-16T04:41:07;74156.56;;;-145.25;100.00
54146;BME280;40052;49.422;7.738;2022-10-16T04:43:33;74156.56;;;-145.25;100.00
54146;BME280;40052;49.422;7.738;2022-10-16T04:45:59;74152.56;;;-145.25;100.00
54146;BME280;40052;49.422;7.738;2022-10-16T04:48:24;74158.56;;;-145.25;100.00
54146;BME280;40052;49.422;7.738;2022-10-16T04:50:50;74160.56;;;-145.25;100.00
54146;BME280;40052;49.422;7.738;2022-10-16T04:53:18;74162.56;;;-145.25;100.00
54146;BME280;40052;49.422;7.738;2022-10-16T04:55:46;74156.56;;;-145.25;100.00
54146;BME280;40052;49.422;7.738;2022-10-16T04:58:11;74164.56;;;-145.25;100.00
54146;BME280;40052;49.422;7.738;2022-10-16T05:00:36;74168.59;;;-145.25;100.00
54146;BME280;40052;49.422;7.738;2022-10-16T05:03:05;74174.59;;;-145.25;100.00
54146;BME280;40052;49.422;7.738;2022-10-16T05:05:34;74180.59;;;-145.25;100.00
54146;BME280;40052;49.422;7.738;2022-10-16T05:07:59;74184.63;;;-145.25;100.00
54146;BME280;40052;49.422;7.738;2022-10-16T05:10:27;74186.63;;;-145.25;100.00
54146;BME280;40052;49.422;7.738;2022-10-16T05:12:59;74192.63;;;-145.25;100.00
54146;BME280;40052;49.422;7.738;2022-10-16T05:15:25;74194.63;;;-145.25;100.00
54146;BME280;40052;49.422;7.738;2022-10-16T05:17:54;74182.59;;;-145.25;100.00
54146;BME280;40052;49.422;7.738;2022-10-16T05:20:19;74182.59;;;-145.25;100.00
54146;BME280;40052;49.422;7.738;2022-10-16T05:22:47;74188.63;;;-145.25;100.00
54146;BME280;40052;49.422;7.738;2022-10-16T05:25:12;74196.63;;;-145.25;100.00
54146;BME280;40052;49.422;7.738;2022-10-16T05:27:40;74198.63;;;-145.25;100.00
54146;BME280;40052;49.422;7.738;2022-10-16T05:30:06;74200.63;;;-145.25;100.00
54146;BME280;40052;49.422;7.738;2022-10-16T05:32:31;74198.63;;;-145.25;100.00
54146;BME280;40052;49.422;7.738;2022-10-16T05:34:57;74202.66;;;-145.25;100.00
54146;BME280;40052;49.422;7.738;2022-10-16T05:37:27;74208.66;;;-145.25;100.00
54146;BME280;40052;49.422;7.738;2022-10-16T05:39:52;74204.66;;;-145.25;100.00
54146;BME280;40052;49.422;7.738;2022-10-16T05:42:18;74200.63;;;-145.25;100.00
54146;BME280;40052;49.422;7.738;2022-10-16T05:44:44;74198.63;;;-145.25;100.00
54146;BME280;40052;49.422;7.738;2022-10-16T05:47:09;74202.66;;;-145.25;100.00
54146;BME280;40052;49.422;7.738;2022-10-16T05:49:36;74210.66;;;-145.25;100.00
54146;BME280;40052;49.422;7.738;2022-10-16T05:52:01;74212.66;;;-145.25;100.00
54146;BME280;40052;49.422;7.738;2022-10-16T05:54:27;74218.69;;;-145.25;100.00
54146;BME280;40052;49.422;7.738;2022-10-16T05:56:52;74212.66;;;-145.25;100.00
54146;BME280;40052;49.422;7.738;2022-10-16T05:59:17;74212.66;;;-145.25;100.00
54146;BME280;40052;49.422;7.738;2022-10-16T06:01:43;74218.69;;;-145.25;100.00
54146;BME280;40052;49.422;7.738;2022-10-16T06:04:11;74208.66;;;-145.25;100.00
54146;BME280;40052;49.422;7.738;2022-10-16T06:06:36;74220.69;;;-145.25;100.00
54146;BME280;40052;49.422;7.738;2022-10-16T06:09:04;74218.69;;;-145.25;100.00
54146;BME280;40052;49.422;7.738;2022-10-16T06:11:32;74208.66;;;-145.25;100.00
54146;BME280;40052;49.422;7.738;2022-10-16T06:14:00;74214.66;;;-145.25;100.00
54146;BME280;40052;49.422;7.738;2022-10-16T06:16:33;74214.66;;;-145.25;100.00
54146;BME280;40052;49.422;7.738;2022-10-16T06:18:59;74218.69;;;-145.25;100.00
54146;BME280;40052;49.422;7.738;2022-10-16T06:21:26;74214.66;;;-145.25;100.00
54146;BME280;40052;49.422;7.738;2022-10-16T06:23:55;74216.66;;;-145.25;100.00
54146;BME280;40052;49.422;7.738;2022-10-16T06:26:25;74212.66;;;-145.25;100.00
54146;BME280;40052;49.422;7.738;2022-10-16T06:28:51;74226.69;;;-145.25;100.00
54146;BME280;40052;49.422;7.738;2022-10-16T06:31:18;74224.69;;;-145.25;100.00
54146;BME280;40052;49.422;7.738;2022-10-16T06:33:44;74226.69;;;-145.25;100.00
54146;BME280;40052;49.422;7.738;2022-10-16T06:36:13;74238.72;;;-145.25;100.00
54146;BME280;40052;49.422;7.738;2022-10-16T06:38:42;74240.72;;;-145.25;100.00
54146;BME280;40052;49.422;7.738;2022-10-16T06:41:11;74234.69;;;-145.25;100.00
54146;BME280;40052;49.422;7.738;2022-10-16T06:43:36;74234.69;;;-145.25;100.00
54146;BME280;40052;49.422;7.738;2022-10-16T06:46:04;74230.69;;;-145.25;100.00
54146;BME280;40052;49.422;7.738;2022-10-16T06:48:29;74224.69;;;-145.25;100.00
54146;BME280;40052;49.422;7.738;2022-10-16T06:53:33;74214.66;;;-145.25;100.00
54146;BME280;40052;49.422;7.738;2022-10-16T06:56:15;74212.66;;;-145.25;100.00
54146;BME280;40052;49.422;7.738;2022-10-16T06:58:42;74212.66;;;-145.25;100.00
54146;BME280;40052;49.422;7.738;2022-10-16T07:01:13;74220.69;;;-145.25;100.00
54146;BME280;40052;49.422;7.738;2022-10-16T07:03:41;74218.69;;;-145.25;100.00
54146;BME280;40052;49.422;7.738;2022-10-16T07:06:08;74198.63;;;-145.25;100.00
54146;BME280;40052;49.422;7.738;2022-10-16T07:08:36;74196.63;;;-145.25;100.00
54146;BME280;40052;49.422;7.738;2022-10-16T07:11:07;74180.59;;;-145.25;100.00
54146;BME280;40052;49.422;7.738;2022-10-16T07:13:33;74164.56;;;-145.25;100.00
54146;BME280;40052;49.422;7.738;2022-10-16T07:16:04;74150.53;;;-145.25;100.00
54146;BME280;40052;49.422;7.738;2022-10-16T07:18:30;74146.53;;;-145.25;100.00
54146;BME280;40052;49.422;7.738;2022-10-16T07:21:18;74152.56;;;-145.25;100.00
54146;BME280;40052;49.422;7.738;2022-10-16T07:23:44;74150.53;;;-145.25;100.00
54146;BME280;40052;49.422;7.738;2022-10-16T07:26:12;74144.53;;;-145.25;100.00
54146;BME280;40052;49.422;7.738;2022-10-16T07:28:40;74150.53;;;-145.25;100.00
54146;BME280;40052;49.422;7.738;2022-10-16T07:31:10;74148.53;;;-145.25;100.00
54146;BME280;40052;49.422;7.738;2022-10-16T07:33:37;74170.59;;;-145.25;100.00
54146;BME280;40052;49.422;7.738;2022-10-16T07:36:03;74172.59;;;-145.25;100.00
54146;BME280;40052;49.422;7.738;2022-10-16T07:38:29;74156.56;;;-145.25;100.00
54146;BME280;40052;49.422;7.738;2022-10-16T07:41:04;74150.53;;;-145.25;100.00
54146;BME280;40052;49.422;7.738;2022-10-16T07:43:31;74166.56;;;-145.25;100.00
54146;BME280;40052;49.422;7.738;2022-10-16T07:45:57;74154.56;;;-145.25;100.00
54146;BME280;40052;49.422;7.738;2022-10-16T07:48:27;74178.59;;;-145.25;100.00
54146;BME280;40052;49.422;7.738;2022-10-16T07:50:57;74216.66;;;-145.25;100.00
54146;BME280;40052;49.422;7.738;2022-10-16T07:53:23;74284.78;;;-145.25;100.00
54146;BME280;40052;49.422;7.738;2022-10-16T07:55:48;74298.81;;;-145.25;100.00
54146;BME280;40052;49.422;7.738;2022-10-16T07:58:16;74308.84;;;-145.25;100.00
54146;BME280;40052;49.422;7.738;2022-10-16T08:00:41;74298.81;;;-145.25;100.00
54146;BME280;40052;49.422;7.738;2022-10-16T08:03:10;74284.78;;;-145.25;100.00
54146;BME280;40052;49.422;7.738;2022-10-16T08:05:37;74260.75;;;-145.25;100.00
54146;BME280;40052;49.422;7.738;2022-10-16T08:08:03;74254.75;;;-145.25;100.00
54146;BME280;40052;49.422;7.738;2022-10-16T08:10:31;74258.75;;;-145.25;100.00
54146;BME280;40052;49.422;7.738;2022-10-16T08:12:57;74240.72;;;-145.25;100.00
54146;BME280;40052;49.422;7.738;2022-10-16T08:15:23;74236.72;;;-145.25;100.00
54146;BME280;40052;49.422;7.738;2022-10-16T08:18:03;74226.69;;;-145.25;100.00
54146;BME280;40052;49.422;7.738;2022-10-16T08:20:30;74224.69;;;-145.25;100.00
54146;BME280;40052;49.422;7.738;2022-10-16T08:22:56;74214.66;;;-145.25;100.00
54146;BME280;40052;49.422;7.738;2022-10-16T08:25:24;74202.66;;;-145.25;100.00
54146;BME280;40052;49.422;7.738;2022-10-16T08:27:49;74190.63;;;-145.25;100.00
54146;BME280;40052;49.422;7.738;2022-10-16T08:30:19;74178.59;;;-145.25;100.00
54146;BME280;40052;49.422;7.738;2022-10-16T08:32:45;74174.59;;;-145.25;100.00
54146;BME280;40052;49.422;7.738;2022-10-16T08:35:16;74164.56;;;-145.25;100.00
54146;BME280;40052;49.422;7.738;2022-10-16T08:37:42;74168.59;;;-145.25;100.00
54146;BME280;40052;49.422;7.738;2022-10-16T08:40:24;74162.56;;;-145.25;100.00
54146;BME280;40052;49.422;7.738;2022-10-16T08:43:04;74160.56;;;-145.25;100.00
54146;BME280;40052;49.422;7.738;2022-10-16T08:49:03;74156.56;;;-145.25;100.00
54146;BME280;40052;49.422;7.738;2022-10-16T08:51:25;74142.53;;;-145.25;100.00
54146;BME280;40052;49.422;7.738;2022-10-16T08:53:56;74132.50;;;-145.25;100.00
54146;BME280;40052;49.422;7.738;2022-10-16T08:56:25;74134.53;;;-145.25;100.00
54146;BME280;40052;49.422;7.738;2022-10-16T08:58:51;74126.50;;;-145.25;100.00
54146;BME280;40052;49.422;7.738;2022-10-16T09:01:19;74130.50;;;-145.25;100.00
54146;BME280;40052;49.422;7.738;2022-10-16T09:06:55;74128.50;;;-145.25;100.00
54146;BME280;40052;49.422;7.738;2022-10-16T09:22:41;74070.41;;;-145.25;96.91
54146;BME280;40052;49.422;7.738;2022-10-16T09:25:15;74060.38;;;-145.25;96.23
54146;BME280;40052;49.422;7.738;2022-10-16T09:27:42;74040.34;;;-145.25;95.81
54146;BME280;40052;49.422;7.738;2022-10-16T09:30:17;74028.31;;;-145.25;92.89
54146;BME280;40052;49.422;7.738;2022-10-16T09:32:47;74014.31;;;-145.25;92.12
54146;BME280;40052;49.422;7.738;2022-10-16T09:35:19;73970.22;;;-145.25;90.90
54146;BME280;40052;49.422;7.738;2022-10-16T09:37:50;73942.16;;;-145.25;91.01
54146;BME280;40052;49.422;7.738;2022-10-16T09:40:47;73940.16;;;-145.25;92.24
54146;BME280;40052;49.422;7.738;2022-10-16T09:45:56;73894.09;;;-145.25;88.67
54146;BME280;40052;49.422;7.738;2022-10-16T09:48:27;73918.13;;;-145.25;87.95
54146;BME280;40052;49.422;7.738;2022-10-16T09:50:58;73962.22;;;-145.25;88.52
54146;BME280;40052;49.422;7.738;2022-10-16T09:53:41;73982.25;;;-145.25;90.87
54146;BME280;40052;49.422;7.738;2022-10-16T09:56:10;73994.25;;;-145.25;91.17
54146;BME280;40052;49.422;7.738;2022-10-16T09:58:35;73996.25;;;-145.25;91.77
54146;BME280;40052;49.422;7.738;2022-10-16T10:01:02;74012.28;;;-145.25;90.88
54146;BME280;40052;49.422;7.738;2022-10-16T10:03:40;74018.31;;;-145.25;91.50
54146;BME280;40052;49.422;7.738;2022-10-16T10:06:20;74014.31;;;-145.25;92.10
54146;BME280;40052;49.422;7.738;2022-10-16T10:09:20;74010.28;;;-145.25;93.05
54146;BME280;40052;49.422;7.738;2022-10-16T10:16:48;74020.31;;;-145.25;93.59
54146;BME280;40052;49.422;7.738;2022-10-16T10:19:23;74024.31;;;-145.25;92.81
54146;BME280;40052;49.422;7.738;2022-10-16T10:21:54;74024.31;;;-145.25;93.45
54146;BME280;40052;49.422;7.738;2022-10-16T10:24:19;74020.31;;;-145.25;93.69
54146;BME280;40052;49.422;7.738;2022-10-16T10:27:07;74008.28;;;-145.25;92.67
54146;BME280;40052;49.422;7.738;2022-10-16T10:30:04;73992.25;;;-145.25;93.05
54146;BME280;40052;49.422;7.738;2022-10-16T10:32:40;73980.25;;;-145.25;91.74
54146;BME280;40052;49.422;7.738;2022-10-16T10:35:14;73988.25;;;-145.25;90.95
54146;BME280;40052;49.422;7.738;2022-10-16T10:40:49;73980.25;;;-145.25;91.01
54146;BME280;40052;49.422;7.738;2022-10-16T10:43:22;73998.28;;;-145.25;91.71
54146;BME280;40052;49.422;7.738;2022-10-16T10:51:04;73992.25;;;-145.25;90.00
54146;BME280;40052;49.422;7.738;2022-10-16T10:59:37;73926.13;;;-145.25;86.80
54146;BME280;40052;49.422;7.738;2022-10-16T11:05:49;73878.06;;;-145.25;85.55
54146;BME280;40052;49.422;7.738;2022-10-16T11:08:00;73854.00;;;-145.25;82.36
54146;BME280;40052;49.422;7.738;2022-10-16T11:10:33;73856.00;;;-145.25;81.93
54146;BME280;40052;49.422;7.738;2022-10-16T11:15:58;73866.03;;;-145.25;83.23
54146;BME280;40052;49.422;7.738;2022-10-16T11:21:23;73864.03;;;-145.25;83.51
54146;BME280;40052;49.422;7.738;2022-10-16T11:23:57;73848.00;;;-145.25;82.95
54146;BME280;40052;49.422;7.738;2022-10-16T11:26:32;73835.97;;;-145.25;82.94
54146;BME280;40052;49.422;7.738;2022-10-16T11:29:00;73807.94;;;-145.25;82.30
54146;BME280;40052;49.422;7.738;2022-10-16T11:31:42;73791.91;;;-145.25;81.73
54146;BME280;40052;49.422;7.738;2022-10-16T11:37:12;73823.97;;;-145.25;82.39
54146;BME280;40052;49.422;7.738;2022-10-16T11:39:39;73842.00;;;-145.25;82.57
54146;BME280;40052;49.422;7.738;2022-10-16T11:42:13;73837.97;;;-145.25;84.27
54146;BME280;40052;49.422;7.738;2022-10-16T11:49:57;73807.94;;;-145.25;82.38
54146;BME280;40052;49.422;7.738;2022-10-16T11:52:39;73791.91;;;-145.25;82.37
54146;BME280;40052;49.422;7.738;2022-10-16T11:55:16;73777.88;;;-145.25;82.13
54146;BME280;40052;49.422;7.738;2022-10-16T11:57:47;73787.91;;;-145.25;82.48
54146;BME280;40052;49.422;7.738;2022-10-16T12:00:19;73771.88;;;-145.25;80.40
54146;BME280;40052;49.422;7.738;2022-10-16T12:05:29;73767.84;;;-145.25;81.00
54146;BME280;40052;49.422;7.738;2022-10-16T12:08:03;73747.81;;;-145.25;79.91
54146;BME280;40052;49.422;7.738;2022-10-16T12:10:30;73695.72;;;-145.25;77.34
54146;BME280;40052;49.422;7.738;2022-10-16T12:13:04;73521.44;;;-145.25;73.44
54146;BME280;40052;49.422;7.738;2022-10-16T12:15:32;73437.28;;;-145.25;68.00
54146;BME280;40052;49.422;7.738;2022-10-16T12:18:00;73465.34;;;-145.25;68.23
54146;BME280;40052;49.422;7.738;2022-10-16T12:20:31;73523.44;;;-145.25;69.36
54146;BME280;40052;49.422;7.738;2022-10-16T12:23:04;73581.53;;;-145.25;71.89
54146;BME280;40052;49.422;7.738;2022-10-16T12:30:31;73663.69;;;-145.25;74.43
54146;BME280;40052;49.422;7.738;2022-10-16T12:33:02;73671.69;;;-145.25;74.38
54146;BME280;40052;49.422;7.738;2022-10-16T12:35:32;73691.72;;;-145.25;74.95
54146;BME280;40052;49.422;7.738;2022-10-16T12:38:12;73719.78;;;-145.25;75.35
54146;BME280;40052;49.422;7.738;2022-10-16T12:40:43;73725.78;;;-145.25;76.56
54146;BME280;40052;49.422;7.738;2022-10-16T12:43:44;73745.81;;;-145.25;78.06
54146;BME280;40052;49.422;7.738;2022-10-16T12:48:40;73753.84;;;-145.25;78.99
54146;BME280;40052;49.422;7.738;2022-10-16T12:56:44;73775.88;;;-145.25;80.01
54146;BME280;40052;49.422;7.738;2022-10-16T12:59:54;73777.88;;;-145.25;80.79
54146;BME280;40052;49.422;7.738;2022-10-16T13:10:27;73779.88;;;-145.25;81.29
54146;BME280;40052;49.422;7.738;2022-10-16T13:21:17;73781.88;;;-145.25;82.49
54146;BME280;40052;49.422;7.738;2022-10-16T13:29:01;73809.94;;;-145.25;83.02
54146;BME280;40052;49.422;7.738;2022-10-16T13:31:29;73825.97;;;-145.25;84.31
54146;BME280;40052;49.422;7.738;2022-10-16T13:33:58;73815.94;;;-145.25;83.73
54146;BME280;40052;49.422;7.738;2022-10-16T13:36:26;73813.94;;;-145.25;84.21
54146;BME280;40052;49.422;7.738;2022-10-16T13:39:14;73825.97;;;-145.25;84.30
54146;BME280;40052;49.422;7.738;2022-10-16T13:41:42;73815.94;;;-145.25;84.44
54146;BME280;40052;49.422;7.738;2022-10-16T13:44:27;73811.94;;;-145.25;83.17
54146;BME280;40052;49.422;7.738;2022-10-16T13:47:02;73819.94;;;-145.25;83.29
54146;BME280;40052;49.422;7.738;2022-10-16T13:49:28;73829.97;;;-145.25;84.24
54146;BME280;40052;49.422;7.738;2022-10-16T13:51:57;73837.97;;;-145.25;84.57
54146;BME280;40052;49.422;7.738;2022-10-16T13:54:26;73852.00;;;-145.25;85.00
54146;BME280;40052;49.422;7.738;2022-10-16T13:56:56;73858.03;;;-145.25;84.59
54146;BME280;40052;49.422;7.738;2022-10-16T13:59:36;73854.00;;;-145.25;85.07
54146;BME280;40052;49.422;7.738;2022-10-16T14:04:41;73846.00;;;-145.25;85.67
54146;BME280;40052;49.422;7.738;2022-10-16T14:07:21;73850.00;;;-145.25;85.61
54146;BME280;40052;49.422;7.738;2022-10-16T14:09:49;73860.03;;;-145.25;86.11
54146;BME280;40052;49.422;7.738;2022-10-16T14:12:18;73850.00;;;-145.25;85.90
54146;BME280;40052;49.422;7.738;2022-10-16T14:14:48;73848.00;;;-145.25;83.95
54146;BME280;40052;49.422;7.738;2022-10-16T14:19:49;73850.00;;;-145.25;82.37
54146;BME280;40052;49.422;7.738;2022-10-16T14:24:49;73848.00;;;-145.25;83.43
54146;BME280;40052;49.422;7.738;2022-10-16T14:27:35;73835.97;;;-145.25;83.45
54146;BME280;40052;49.422;7.738;2022-10-16T14:30:19;73837.97;;;-145.25;83.27
54146;BME280;40052;49.422;7.738;2022-10-16T14:33:06;73819.94;;;-145.25;84.54
54146;BME280;40052;49.422;7.738;2022-10-16T14:35:33;73767.84;;;-145.25;81.10
54146;BME280;40052;49.422;7.738;2022-10-16T14:38:01;73655.66;;;-145.25;78.00
54146;BME280;40052;49.422;7.738;2022-10-16T14:40:36;73663.69;;;-145.25;78.19
54146;BME280;40052;49.422;7.738;2022-10-16T14:43:04;73703.75;;;-145.25;76.27
54146;BME280;40052;49.422;7.738;2022-10-16T14:45:34;73735.81;;;-145.25;75.80
54146;BME280;40052;49.422;7.738;2022-10-16T14:48:04;73741.81;;;-145.25;78.06
54146;BME280;40052;49.422;7.738;2022-10-16T14:50:33;73759.84;;;-145.25;78.16
54146;BME280;40052;49.422;7.738;2022-10-16T14:52:59;73777.88;;;-145.25;76.35
54146;BME280;40052;49.422;7.738;2022-10-16T14:55:26;73777.88;;;-145.25;79.27